createdAt,value
2022-08-05T00:00:48.386Z,0.80
2022-08-05T00:03:19.631Z,0.63
2022-08-05T00:06:05.199Z,1.00
2022-08-05T00:08:36.247Z,0.80
2022-08-05T00:11:20.354Z,0.90
2022-08-05T00:13:53.863Z,0.90
2022-08-05T00:16:36.133Z,0.90
2022-08-05T00:19:06.320Z,1.07
2022-08-05T00:21:35.869Z,0.90
2022-08-05T00:24:10.880Z,0.80
2022-08-05T00:26:39.355Z,0.87
2022-08-05T00:29:18.585Z,0.90
2022-08-05T00:32:10.047Z,0.80
2022-08-05T00:34:54.016Z,0.97
2022-08-05T00:37:51.414Z,0.83
2022-08-05T00:40:17.600Z,0.90
2022-08-05T00:42:54.750Z,0.83
2022-08-05T00:45:28.363Z,0.90
2022-08-05T00:48:08.303Z,0.80
2022-08-05T00:50:41.371Z,1.10
2022-08-05T00:54:00.032Z,0.90
2022-08-05T00:55:58.692Z,0.90
2022-08-05T00:58:27.454Z,0.80
2022-08-05T01:00:56.937Z,0.93
2022-08-05T01:03:30.971Z,1.07
2022-08-05T01:06:03.774Z,1.00
2022-08-05T01:08:43.355Z,0.97
2022-08-05T01:11:22.606Z,0.90
2022-08-05T01:14:08.938Z,0.70
2022-08-05T01:16:45.026Z,0.70
2022-08-05T01:19:36.714Z,0.93
2022-08-05T01:22:27.975Z,0.87
2022-08-05T01:25:07.649Z,0.90
2022-08-05T01:28:06.102Z,1.03
2022-08-05T01:30:41.104Z,0.90
2022-08-05T01:33:26.135Z,0.77
2022-08-05T01:35:57.458Z,1.03
2022-08-05T01:38:29.878Z,0.90
2022-08-05T01:41:01.528Z,0.87
2022-08-05T01:43:32.984Z,1.30
2022-08-05T01:46:07.248Z,0.80
2022-08-05T01:48:49.596Z,1.03
2022-08-05T01:51:18.916Z,1.00
2022-08-05T01:53:57.643Z,0.80
2022-08-05T01:58:12.972Z,1.07
2022-08-05T01:59:22.668Z,0.93
2022-08-05T02:01:54.854Z,1.00
2022-08-05T02:04:24.771Z,0.87
2022-08-05T02:06:54.065Z,1.00
2022-08-05T02:09:22.234Z,0.80
2022-08-05T02:12:10.434Z,1.03
2022-08-05T02:14:47.089Z,0.90
2022-08-05T02:18:28.745Z,1.00
2022-08-05T02:20:15.536Z,0.90
2022-08-05T02:22:54.411Z,1.03
2022-08-05T02:25:27.588Z,0.90
2022-08-05T02:28:08.776Z,1.10
2022-08-05T02:30:54.164Z,1.20
2022-08-05T02:33:24.514Z,1.10
2022-08-05T02:36:06.066Z,1.10
2022-08-05T02:38:38.803Z,0.80
2022-08-05T02:41:17.269Z,0.80
2022-08-05T02:44:02.801Z,1.00
2022-08-05T02:46:53.232Z,0.90
2022-08-05T02:49:35.908Z,0.90
2022-08-05T02:52:08.677Z,1.00
2022-08-05T02:54:41.185Z,0.93
2022-08-05T02:58:10.841Z,0.90
2022-08-05T02:59:59.893Z,0.90
2022-08-05T03:02:35.349Z,0.87
2022-08-05T03:05:04.301Z,0.97
2022-08-05T03:07:59.323Z,0.80
2022-08-05T03:10:21.728Z,0.90
2022-08-05T03:12:53.169Z,0.90
2022-08-05T03:15:23.238Z,1.13
2022-08-05T03:17:55.674Z,0.97
2022-08-05T03:20:24.819Z,1.10
2022-08-05T03:22:57.086Z,1.00
2022-08-05T03:25:33.666Z,1.10
2022-08-05T03:28:18.630Z,1.00
2022-08-05T03:30:49.118Z,0.80
2022-08-05T03:33:18.790Z,0.80
2022-08-05T03:35:48.572Z,0.90
2022-08-05T03:38:17.829Z,1.10
2022-08-05T03:41:04.021Z,1.00
2022-08-05T03:44:08.272Z,1.00
2022-08-05T03:46:29.483Z,1.10
2022-08-05T03:48:59.330Z,0.80
2022-08-05T03:52:35.316Z,0.90
2022-08-05T03:56:02.018Z,0.90
2022-08-05T03:57:20.018Z,0.90
2022-08-05T03:59:55.510Z,1.10
2022-08-05T04:02:37.556Z,1.07
2022-08-05T04:05:10.873Z,0.90
2022-08-05T04:07:57.468Z,1.10
2022-08-05T04:10:28.277Z,1.00
2022-08-05T04:13:03.395Z,0.80
2022-08-05T04:27:43.896Z,1.10
2022-08-05T04:30:21.055Z,1.00
2022-08-05T04:32:49.206Z,1.17
2022-08-05T04:35:17.540Z,1.00
2022-08-05T04:38:02.528Z,1.10
2022-08-05T04:40:35.496Z,1.10
2022-08-05T04:43:05.575Z,1.10
2022-08-05T04:45:48.280Z,1.30
2022-08-05T04:48:27.065Z,1.30
2022-08-05T04:51:02.537Z,0.90
2022-08-05T04:53:39.241Z,0.90
2022-08-05T04:56:32.912Z,0.87
2022-08-05T04:58:57.329Z,1.17
2022-08-05T05:01:33.495Z,0.90
2022-08-05T05:04:13.162Z,1.00
2022-08-05T05:06:49.125Z,1.00
2022-08-05T05:09:19.989Z,0.80
2022-08-05T05:11:54.120Z,0.93
2022-08-05T05:14:27.819Z,1.00
2022-08-05T05:17:00.140Z,0.90
2022-08-05T05:19:36.583Z,0.90
2022-08-05T05:22:22.751Z,0.97
2022-08-05T05:24:56.885Z,0.90
2022-08-05T05:27:44.414Z,1.07
2022-08-05T05:30:29.751Z,0.90
2022-08-05T05:33:03.488Z,1.00
2022-08-05T05:35:39.612Z,0.83
2022-08-05T05:38:13.343Z,1.10
2022-08-05T05:40:49.565Z,1.27
2022-08-05T05:43:22.281Z,1.00
2022-08-05T05:46:15.944Z,1.07
2022-08-05T05:48:48.369Z,0.90
2022-08-05T05:51:21.045Z,1.17
2022-08-05T05:53:57.149Z,0.97
2022-08-05T05:56:33.370Z,1.20
2022-08-05T05:59:05.575Z,1.20
2022-08-05T06:01:37.026Z,1.20
2022-08-05T06:04:07.182Z,1.17
2022-08-05T06:06:35.646Z,1.00
2022-08-05T06:09:04.212Z,1.30
2022-08-05T06:11:32.221Z,1.10
2022-08-05T06:14:00.292Z,1.00
2022-08-05T06:16:33.066Z,1.00
2022-08-05T06:19:07.528Z,1.30
2022-08-05T06:21:38.355Z,1.00
2022-08-05T06:24:12.386Z,1.30
2022-08-05T06:26:51.835Z,1.20
2022-08-05T06:29:23.764Z,1.00
2022-08-05T06:32:25.091Z,1.00
2022-08-05T06:34:57.247Z,1.07
2022-08-05T06:37:55.773Z,1.23
2022-08-05T06:40:18.118Z,1.07
2022-08-05T06:42:51.887Z,0.97
2022-08-05T06:45:43.920Z,1.00
2022-08-05T06:48:36.627Z,1.10
2022-08-05T06:50:58.262Z,1.20
2022-08-05T06:53:29.160Z,1.17
2022-08-05T06:55:58.150Z,1.10
2022-08-05T06:58:35.288Z,0.90
2022-08-05T07:01:06.553Z,1.03
2022-08-05T07:03:35.656Z,0.93
2022-08-05T07:06:14.418Z,0.83
2022-08-05T07:08:47.732Z,0.90
2022-08-05T07:11:22.408Z,0.93
2022-08-05T07:14:20.180Z,0.93
2022-08-05T07:18:00.087Z,0.90
2022-08-05T07:22:30.376Z,1.03
2022-08-05T07:25:23.418Z,1.00
2022-08-05T07:27:58.239Z,1.00
2022-08-05T07:30:32.764Z,1.20
2022-08-05T07:33:05.149Z,1.40
2022-08-05T07:35:55.649Z,1.20
2022-08-05T07:38:33.445Z,1.00
2022-08-05T07:41:35.067Z,1.30
2022-08-05T07:43:56.223Z,1.10
2022-08-05T07:46:26.220Z,0.90
2022-08-05T07:49:02.099Z,1.17
2022-08-05T07:51:40.289Z,1.30
2022-08-05T07:54:12.651Z,1.10
2022-08-05T07:57:01.749Z,1.23
2022-08-05T07:59:38.580Z,1.13
2022-08-05T08:02:10.665Z,0.90
2022-08-05T08:04:45.864Z,1.27
2022-08-05T08:07:14.049Z,0.80
2022-08-05T08:09:44.382Z,1.03
2022-08-05T08:12:36.849Z,1.00
2022-08-05T08:15:02.135Z,1.20
2022-08-05T08:17:31.134Z,1.40
2022-08-05T08:20:10.099Z,1.30
2022-08-05T08:22:52.400Z,1.30
2022-08-05T08:25:22.064Z,1.20
2022-08-05T08:27:55.325Z,1.00
2022-08-05T08:30:33.919Z,1.13
2022-08-05T08:33:13.951Z,1.00
2022-08-05T08:35:52.719Z,0.97
2022-08-05T08:38:35.499Z,1.07
2022-08-05T08:41:08.567Z,1.00
2022-08-05T08:45:23.521Z,1.10
2022-08-05T08:46:28.981Z,1.00
2022-08-05T08:49:06.064Z,1.10
2022-08-05T08:52:02.929Z,0.90
2022-08-05T08:54:27.956Z,1.00
2022-08-05T08:56:57.311Z,1.20
2022-08-05T08:59:27.593Z,1.00
2022-08-05T09:01:57.258Z,1.07
2022-08-05T09:04:30.424Z,1.00
2022-08-05T09:06:58.869Z,1.30
2022-08-05T09:09:32.474Z,1.30
2022-08-05T09:12:20.168Z,1.17
2022-08-05T09:14:58.318Z,1.00
2022-08-05T09:17:42.323Z,1.13
2022-08-05T09:20:12.648Z,0.80
2022-08-05T09:23:09.727Z,1.20
2022-08-05T09:26:03.325Z,1.20
2022-08-05T09:28:35.065Z,1.17
2022-08-05T09:31:22.252Z,1.10
2022-08-05T09:33:56.233Z,1.00
2022-08-05T09:36:27.759Z,0.93
2022-08-05T09:39:16.383Z,1.23
2022-08-05T09:42:00.121Z,1.00
2022-08-05T09:44:41.143Z,1.10
2022-08-05T09:47:14.106Z,0.90
2022-08-05T09:50:00.752Z,1.03
2022-08-05T09:52:32.088Z,1.10
2022-08-05T09:55:55.620Z,1.30
2022-08-05T09:57:49.604Z,1.30
2022-08-05T10:00:25.820Z,1.37
2022-08-05T10:02:58.422Z,1.20
2022-08-05T10:05:28.998Z,0.97
2022-08-05T10:08:35.030Z,1.00
2022-08-05T10:10:54.162Z,1.00
2022-08-05T10:13:43.978Z,1.00
2022-08-05T10:16:37.590Z,1.07
2022-08-05T10:19:09.469Z,1.07
2022-08-05T10:21:40.428Z,0.90
2022-08-05T10:24:13.019Z,1.10
2022-08-05T10:26:52.101Z,0.90
2022-08-05T10:29:23.506Z,1.13
2022-08-05T10:33:02.200Z,0.87
2022-08-05T10:35:01.436Z,1.00
2022-08-05T10:37:44.818Z,0.80
2022-08-05T10:40:22.511Z,1.00
2022-08-05T10:43:02.269Z,0.80
2022-08-05T10:45:42.185Z,0.83
2022-08-05T10:48:52.421Z,1.20
2022-08-05T10:51:28.705Z,0.80
2022-08-05T10:54:02.023Z,1.33
2022-08-05T10:56:49.447Z,1.10
2022-08-05T11:00:02.190Z,1.00
2022-08-05T11:02:34.907Z,0.97
2022-08-05T11:05:08.101Z,1.00
2022-08-05T11:08:01.188Z,0.97
2022-08-05T11:10:31.627Z,0.80
2022-08-05T11:13:01.050Z,1.00
2022-08-05T11:15:59.362Z,1.00
2022-08-05T11:18:30.091Z,0.93
2022-08-05T11:21:02.839Z,1.20
2022-08-05T11:24:02.867Z,1.10
2022-08-05T11:26:29.110Z,0.97
2022-08-05T11:29:12.027Z,1.13
2022-08-05T11:31:57.234Z,0.90
2022-08-05T11:34:50.882Z,1.10
2022-08-05T11:38:29.003Z,1.10
2022-08-05T11:41:15.512Z,1.00
2022-08-05T11:44:04.491Z,1.20
2022-08-05T11:46:37.764Z,0.90
2022-08-05T11:49:25.580Z,1.10
2022-08-05T11:51:54.314Z,0.90
2022-08-05T11:54:32.642Z,0.90
2022-08-05T11:57:08.497Z,1.10
2022-08-05T11:59:52.773Z,1.00
2022-08-05T12:02:30.319Z,0.90
2022-08-05T12:05:08.164Z,1.13
2022-08-05T12:08:03.196Z,1.10
2022-08-05T12:10:45.126Z,1.00
2022-08-05T12:13:18.860Z,1.17
2022-08-05T12:16:14.242Z,1.20
2022-08-05T12:18:49.414Z,1.00
2022-08-05T12:21:23.952Z,1.00
2022-08-05T12:23:58.445Z,1.00
2022-08-05T12:26:34.254Z,1.07
2022-08-05T12:29:03.293Z,1.23
2022-08-05T12:31:46.226Z,0.90
2022-08-05T12:34:21.354Z,1.00
2022-08-05T12:36:53.212Z,1.03
2022-08-05T12:39:22.006Z,1.20
2022-08-05T12:41:58.195Z,1.30
2022-08-05T12:44:33.275Z,1.10
2022-08-05T12:47:02.493Z,1.13
2022-08-05T12:50:02.115Z,1.10
2022-08-05T12:52:35.273Z,1.10
2022-08-05T12:55:22.165Z,0.80
2022-08-05T12:58:51.067Z,0.80
2022-08-05T13:02:03.682Z,1.10
2022-08-05T13:03:33.096Z,1.10
2022-08-05T13:06:02.432Z,0.80
2022-08-05T13:08:32.285Z,1.00
2022-08-05T13:11:01.872Z,0.90
2022-08-05T13:14:05.438Z,0.87
2022-08-05T13:16:20.878Z,0.80
2022-08-05T13:18:57.631Z,1.07
2022-08-05T13:21:28.520Z,1.00
2022-08-05T13:24:08.858Z,1.00
2022-08-05T13:26:36.996Z,1.10
2022-08-05T13:29:06.658Z,0.90
2022-08-05T13:32:04.609Z,0.90
2022-08-05T13:34:25.879Z,1.10
2022-08-05T13:36:54.929Z,1.00
2022-08-05T13:39:24.337Z,0.80
2022-08-05T13:42:13.988Z,1.00
2022-08-05T13:44:45.713Z,0.80
2022-08-05T13:47:36.040Z,1.10
2022-08-05T13:50:04.407Z,1.10
2022-08-05T13:52:35.344Z,0.90
2022-08-05T13:55:07.305Z,0.90
2022-08-05T13:57:51.355Z,1.20
2022-08-05T14:00:26.913Z,1.10
2022-08-05T14:02:56.435Z,0.80
2022-08-05T14:05:47.892Z,1.10
2022-08-05T14:08:21.065Z,0.93
2022-08-05T14:11:03.232Z,1.37
2022-08-05T14:13:43.740Z,1.10
2022-08-05T14:16:19.232Z,1.07
2022-08-05T14:18:47.229Z,0.90
2022-08-05T14:22:07.218Z,0.97
2022-08-05T14:24:03.411Z,1.03
2022-08-05T14:26:38.655Z,1.00
2022-08-05T14:29:16.526Z,1.27
2022-08-05T14:32:02.333Z,0.73
2022-08-05T14:34:35.760Z,1.00
2022-08-05T14:37:04.398Z,1.10
2022-08-05T14:39:49.761Z,0.87
2022-08-05T14:42:29.375Z,1.30
2022-08-05T14:44:57.862Z,1.00
2022-08-05T14:48:02.912Z,1.00
2022-08-05T14:50:19.069Z,1.00
2022-08-05T14:52:53.488Z,0.90
2022-08-05T14:55:38.520Z,0.80
2022-08-05T14:58:10.777Z,1.03
2022-08-05T15:00:59.725Z,1.00
2022-08-05T15:03:33.990Z,0.97
2022-08-05T15:06:15.403Z,0.90
2022-08-05T15:08:58.435Z,0.90
2022-08-05T15:11:51.223Z,0.93
2022-08-05T15:14:33.548Z,1.20
2022-08-05T15:17:05.154Z,0.97
2022-08-05T15:19:39.369Z,0.90
2022-08-05T15:22:16.919Z,0.80
2022-08-05T15:24:45.625Z,1.00
2022-08-05T15:27:13.709Z,1.00
2022-08-05T15:29:42.373Z,1.00
2022-08-05T15:32:10.328Z,0.90
2022-08-05T15:34:39.623Z,0.80
2022-08-05T15:37:15.550Z,1.13
2022-08-05T15:40:59.322Z,0.80
2022-08-05T15:42:56.682Z,1.17
2022-08-05T15:45:37.884Z,0.80
2022-08-05T15:48:07.067Z,1.00
2022-08-05T15:50:36.736Z,1.03
2022-08-05T15:53:06.149Z,1.00
2022-08-05T15:56:02.090Z,1.20
2022-08-05T15:58:23.105Z,0.87
2022-08-05T16:01:11.593Z,0.83
2022-08-05T16:03:41.163Z,1.00
2022-08-05T16:06:11.734Z,1.00
2022-08-05T16:08:39.955Z,0.90
2022-08-05T16:11:08.254Z,1.10
2022-08-05T16:13:36.369Z,1.07
2022-08-05T16:16:05.174Z,0.97
2022-08-05T16:18:33.675Z,1.00
2022-08-05T16:21:04.375Z,0.93
2022-08-05T16:23:54.655Z,1.00
2022-08-05T16:26:26.615Z,0.93
2022-08-05T16:28:55.430Z,0.90
2022-08-05T16:31:23.540Z,1.03
2022-08-05T16:33:52.122Z,1.03
2022-08-05T16:36:23.904Z,1.40
2022-08-05T16:38:55.765Z,1.10
2022-08-05T16:42:12.078Z,0.93
2022-08-05T16:44:13.478Z,1.00
2022-08-05T16:46:41.744Z,0.90
2022-08-05T16:49:26.278Z,1.10
2022-08-05T16:51:56.885Z,1.40
2022-08-05T16:54:31.888Z,0.90
2022-08-05T16:57:01.540Z,1.00
2022-08-05T16:59:30.647Z,1.17
2022-08-05T17:01:59.493Z,1.00
2022-08-05T17:04:28.954Z,1.00
2022-08-05T17:07:00.889Z,0.90
2022-08-05T17:09:39.033Z,1.23
2022-08-05T17:12:22.574Z,1.03
2022-08-05T17:15:09.310Z,0.90
2022-08-05T17:17:42.130Z,1.10
2022-08-05T17:20:14.576Z,0.90
2022-08-05T17:22:42.852Z,1.10
2022-08-05T17:25:33.845Z,1.13
2022-08-05T17:28:02.422Z,1.03
2022-08-05T17:30:30.475Z,1.20
2022-08-05T17:32:58.418Z,1.20
2022-08-05T17:35:26.360Z,1.10
2022-08-05T17:38:04.872Z,1.00
2022-08-05T17:40:34.602Z,0.90
2022-08-05T17:43:03.086Z,1.10
2022-08-05T17:45:38.751Z,1.30
2022-08-05T17:48:07.923Z,1.30
2022-08-05T17:50:35.942Z,1.00
2022-08-05T17:53:08.328Z,1.00
2022-08-05T17:55:40.141Z,1.10
2022-08-05T17:58:11.001Z,1.10
2022-08-05T18:00:44.947Z,1.27
2022-08-05T18:03:33.469Z,1.00
2022-08-05T18:06:06.069Z,1.23
2022-08-05T18:08:40.666Z,1.17
2022-08-05T18:11:23.854Z,1.10
2022-08-05T18:13:59.635Z,1.30
2022-08-05T18:16:27.841Z,1.17
2022-08-05T18:18:55.820Z,1.13
2022-08-05T18:21:26.455Z,0.87
2022-08-05T18:23:56.509Z,0.97
2022-08-05T18:26:29.575Z,1.10
2022-08-05T18:29:00.362Z,1.30
2022-08-05T18:31:33.144Z,1.10
2022-08-05T18:34:03.788Z,1.30
2022-08-05T18:36:35.293Z,1.30
2022-08-05T18:39:03.964Z,1.00
2022-08-05T18:41:56.093Z,0.97
2022-08-05T18:44:34.727Z,1.27
2022-08-05T18:47:04.282Z,1.30
2022-08-05T18:50:05.010Z,1.20
2022-08-05T18:52:41.640Z,1.10
2022-08-05T18:55:20.047Z,1.53
2022-08-05T18:57:52.618Z,1.30
2022-08-05T19:00:29.110Z,1.20
2022-08-05T19:03:03.622Z,1.33
2022-08-05T19:06:13.218Z,1.57
2022-08-05T19:08:21.697Z,1.50
2022-08-05T19:10:49.870Z,0.90
2022-08-05T19:13:19.759Z,1.20
2022-08-05T19:15:59.816Z,1.10
2022-08-05T19:18:31.187Z,1.23
2022-08-05T19:20:59.647Z,0.90
2022-08-05T19:24:07.035Z,1.40
2022-08-05T19:26:17.295Z,1.20
2022-08-05T19:28:46.643Z,1.40
2022-08-05T19:31:19.518Z,1.30
2022-08-05T19:33:56.448Z,1.23
2022-08-05T19:36:25.424Z,1.37
2022-08-05T19:39:01.108Z,1.40
2022-08-05T19:41:58.093Z,1.57
2022-08-05T19:44:19.247Z,1.50
2022-08-05T19:46:47.571Z,1.10
2022-08-05T19:49:18.361Z,1.40
2022-08-05T19:52:09.101Z,1.47
2022-08-05T19:54:35.613Z,1.60
2022-08-05T19:57:09.553Z,1.33
2022-08-05T20:00:01.020Z,1.43
2022-08-05T20:02:31.496Z,1.30
2022-08-05T20:05:00.144Z,1.20
2022-08-05T20:07:46.828Z,1.70
2022-08-05T20:10:17.442Z,1.40
2022-08-05T20:12:49.056Z,1.53
2022-08-05T20:15:47.728Z,1.30
2022-08-05T20:18:10.989Z,1.60
2022-08-05T20:20:57.087Z,1.40
2022-08-05T20:23:40.102Z,1.67
2022-08-05T20:26:16.046Z,1.60
2022-08-05T20:28:46.037Z,1.47
2022-08-05T20:31:16.861Z,1.37
2022-08-05T20:33:45.447Z,1.50
2022-08-05T20:36:14.392Z,1.70
2022-08-05T20:38:53.779Z,1.50
2022-08-05T20:41:27.428Z,1.67
2022-08-05T20:44:18.926Z,1.70
2022-08-05T20:46:59.388Z,1.43
2022-08-05T20:49:28.004Z,1.50
2022-08-05T20:51:57.450Z,1.57
2022-08-05T20:54:42.705Z,1.60
2022-08-05T20:57:14.441Z,1.57
2022-08-05T20:59:46.099Z,2.10
2022-08-05T21:02:39.345Z,1.63
2022-08-05T21:05:09.325Z,1.70
2022-08-05T21:07:50.484Z,1.70
2022-08-05T21:10:19.958Z,1.40
2022-08-05T21:12:58.132Z,1.70
2022-08-05T21:15:38.154Z,1.73
2022-08-05T21:18:07.685Z,1.40
2022-08-05T21:20:35.859Z,1.53
2022-08-05T21:23:03.834Z,1.63
2022-08-05T21:25:33.922Z,1.70
2022-08-05T21:28:03.012Z,1.60
2022-08-05T21:30:31.432Z,1.60
2022-08-05T21:33:01.810Z,2.07
2022-08-05T21:35:55.891Z,1.73
2022-08-05T21:38:20.066Z,1.50
2022-08-05T21:40:48.037Z,2.13
2022-08-05T21:43:24.692Z,1.67
2022-08-05T21:45:56.404Z,1.50
2022-08-05T21:48:26.134Z,1.60
2022-08-05T21:50:55.631Z,1.40
2022-08-05T21:53:27.286Z,1.60
2022-08-05T21:56:04.933Z,1.80
2022-08-05T21:58:42.411Z,1.70
2022-08-05T22:01:23.939Z,1.47
2022-08-05T22:03:53.643Z,1.37
2022-08-05T22:06:39.522Z,1.70
2022-08-05T22:09:15.102Z,1.60
2022-08-05T22:11:48.885Z,1.60
2022-08-05T22:14:35.594Z,1.47
2022-08-05T22:17:07.457Z,1.70
2022-08-05T22:20:03.358Z,1.73
2022-08-05T22:22:27.389Z,1.60
2022-08-05T22:25:21.564Z,1.97
2022-08-05T22:28:11.098Z,1.90
2022-08-05T22:30:56.482Z,1.90
2022-08-05T22:33:57.134Z,1.80
2022-08-05T22:36:15.366Z,1.87
2022-08-05T22:38:48.734Z,1.53
2022-08-05T22:42:04.611Z,1.83
2022-08-05T22:44:06.881Z,1.70
2022-08-05T22:46:39.570Z,1.70
2022-08-05T22:49:12.109Z,1.87
2022-08-05T22:52:06.327Z,1.67
2022-08-05T22:54:29.976Z,1.73
2022-08-05T22:56:57.945Z,1.70
2022-08-05T22:59:45.400Z,1.60
2022-08-05T23:02:16.520Z,1.67
2022-08-05T23:04:52.325Z,1.50
2022-08-05T23:07:22.412Z,1.70
2022-08-05T23:09:57.016Z,1.50
2022-08-05T23:12:28.994Z,1.57
2022-08-05T23:15:01.460Z,1.57
2022-08-05T23:17:34.125Z,1.43
2022-08-05T23:20:15.567Z,2.03
2022-08-05T23:22:47.420Z,1.67
2022-08-05T23:25:52.569Z,1.37
2022-08-05T23:28:07.454Z,1.90
2022-08-05T23:30:39.972Z,1.23
2022-08-05T23:33:16.190Z,1.40
2022-08-05T23:35:50.338Z,1.50
2022-08-05T23:38:19.387Z,1.53
2022-08-05T23:40:49.714Z,1.60
2022-08-05T23:43:25.031Z,1.50
2022-08-05T23:46:20.288Z,1.30
2022-08-05T23:49:00.257Z,1.67
2022-08-05T23:51:54.099Z,1.43
2022-08-05T23:54:25.055Z,1.30
2022-08-05T23:57:03.267Z,1.50
